sensor_id;sensor_type;location;lat;lon;timestamp;P1;durP1;ratioP1;P2;durP2;ratioP2
20832;SDS011;56075;51.264;7.150;2023-01-16T00:02:13;3.80;;;0.70;;
20832;SDS011;56075;51.264;7.150;2023-01-16T00:04:45;6.23;;;0.70;;
20832;SDS011;56075;51.264;7.150;2023-01-16T00:07:16;3.23;;;0.80;;
20832;SDS011;56075;51.264;7.150;2023-01-16T00:09:48;2.43;;;0.60;;
20832;SDS011;56075;51.264;7.150;2023-01-16T00:12:19;6.73;;;0.60;;
20832;SDS011;56075;51.264;7.150;2023-01-16T00:14:50;1.53;;;0.60;;
20832;SDS011;56075;51.264;7.150;2023-01-16T00:17:22;3.60;;;0.53;;
20832;SDS011;56075;51.264;7.150;2023-01-16T00:19:53;8.87;;;0.80;;
20832;SDS011;56075;51.264;7.150;2023-01-16T00:22:25;1.53;;;0.53;;
20832;SDS011;56075;51.264;7.150;2023-01-16T00:24:56;2.73;;;0.70;;
20832;SDS011;56075;51.264;7.150;2023-01-16T00:27:28;3.50;;;0.70;;
20832;SDS011;56075;51.264;7.150;2023-01-16T00:29:59;4.73;;;0.70;;
20832;SDS011;56075;51.264;7.150;2023-01-16T00:32:31;3.87;;;0.47;;
20832;SDS011;56075;51.264;7.150;2023-01-16T00:35:03;5.47;;;0.57;;
20832;SDS011;56075;51.264;7.150;2023-01-16T00:37:34;1.93;;;0.50;;
20832;SDS011;56075;51.264;7.150;2023-01-16T00:40:06;2.10;;;0.50;;
20832;SDS011;56075;51.264;7.150;2023-01-16T00:42:37;3.53;;;0.50;;
20832;SDS011;56075;51.264;7.150;2023-01-16T00:45:09;1.60;;;0.40;;
20832;SDS011;56075;51.264;7.150;2023-01-16T00:47:40;3.03;;;0.60;;
20832;SDS011;56075;51.264;7.150;2023-01-16T00:50:12;2.93;;;0.80;;
20832;SDS011;56075;51.264;7.150;2023-01-16T00:52:43;1.60;;;0.50;;
20832;SDS011;56075;51.264;7.150;2023-01-16T00:55:15;3.33;;;0.70;;
20832;SDS011;56075;51.264;7.150;2023-01-16T00:57:46;0.93;;;0.57;;
20832;SDS011;56075;51.264;7.150;2023-01-16T01:00:18;2.03;;;0.73;;
20832;SDS011;56075;51.264;7.150;2023-01-16T01:02:51;3.07;;;0.60;;
20832;SDS011;56075;51.264;7.150;2023-01-16T01:05:22;4.70;;;0.87;;
20832;SDS011;56075;51.264;7.150;2023-01-16T01:07:54;1.97;;;0.60;;
20832;SDS011;56075;51.264;7.150;2023-01-16T01:10:25;2.77;;;0.70;;
20832;SDS011;56075;51.264;7.150;2023-01-16T01:12:57;2.23;;;0.50;;
20832;SDS011;56075;51.264;7.150;2023-01-16T01:15:28;4.07;;;0.80;;
20832;SDS011;56075;51.264;7.150;2023-01-16T01:17:59;2.33;;;0.50;;
20832;SDS011;56075;51.264;7.150;2023-01-16T01:20:31;2.33;;;0.63;;
20832;SDS011;56075;51.264;7.150;2023-01-16T01:23:03;4.10;;;0.57;;
20832;SDS011;56075;51.264;7.150;2023-01-16T01:25:36;2.73;;;0.60;;
20832;SDS011;56075;51.264;7.150;2023-01-16T01:28:08;3.17;;;0.80;;
20832;SDS011;56075;51.264;7.150;2023-01-16T01:30:39;3.63;;;0.50;;
20832;SDS011;56075;51.264;7.150;2023-01-16T01:33:11;2.83;;;0.60;;
20832;SDS011;56075;51.264;7.150;2023-01-16T01:35:42;1.93;;;0.40;;
20832;SDS011;56075;51.264;7.150;2023-01-16T01:38:13;4.33;;;0.40;;
20832;SDS011;56075;51.264;7.150;2023-01-16T01:40:44;2.57;;;0.57;;
20832;SDS011;56075;51.264;7.150;2023-01-16T01:43:15;2.27;;;0.57;;
20832;SDS011;56075;51.264;7.150;2023-01-16T01:45:48;2.67;;;0.70;;
20832;SDS011;56075;51.264;7.150;2023-01-16T01:48:26;1.80;;;0.40;;
20832;SDS011;56075;51.264;7.150;2023-01-16T01:51:02;3.77;;;0.63;;
20832;SDS011;56075;51.264;7.150;2023-01-16T01:53:48;3.10;;;0.43;;
20832;SDS011;56075;51.264;7.150;2023-01-16T01:56:25;1.63;;;0.50;;
20832;SDS011;56075;51.264;7.150;2023-01-16T01:59:06;4.17;;;0.30;;
20832;SDS011;56075;51.264;7.150;2023-01-16T02:01:39;3.43;;;0.33;;
20832;SDS011;56075;51.264;7.150;2023-01-16T02:04:15;2.63;;;0.20;;
20832;SDS011;56075;51.264;7.150;2023-01-16T02:06:53;3.63;;;0.57;;
20832;SDS011;56075;51.264;7.150;2023-01-16T02:09:26;2.33;;;0.50;;
20832;SDS011;56075;51.264;7.150;2023-01-16T02:11:58;2.50;;;0.50;;
20832;SDS011;56075;51.264;7.150;2023-01-16T02:14:33;3.93;;;0.40;;
20832;SDS011;56075;51.264;7.150;2023-01-16T02:17:11;2.40;;;0.50;;
20832;SDS011;56075;51.264;7.150;2023-01-16T02:36:14;2.13;;;0.40;;
20832;SDS011;56075;51.264;7.150;2023-01-16T02:41:47;1.63;;;0.50;;
20832;SDS011;56075;51.264;7.150;2023-01-16T02:47:23;0.50;;;0.40;;
20832;SDS011;56075;51.264;7.150;2023-01-16T02:55:33;1.87;;;0.40;;
20832;SDS011;56075;51.264;7.150;2023-01-16T02:58:09;1.90;;;0.40;;
20832;SDS011;56075;51.264;7.150;2023-01-16T03:00:49;2.23;;;0.40;;
20832;SDS011;56075;51.264;7.150;2023-01-16T03:03:35;1.30;;;0.33;;
20832;SDS011;56075;51.264;7.150;2023-01-16T03:09:22;1.70;;;0.30;;
20832;SDS011;56075;51.264;7.150;2023-01-16T03:14:55;0.97;;;0.40;;
20832;SDS011;56075;51.264;7.150;2023-01-16T03:20:32;0.63;;;0.20;;
20832;SDS011;56075;51.264;7.150;2023-01-16T03:25:53;1.20;;;0.20;;
20832;SDS011;56075;51.264;7.150;2023-01-16T03:31:00;1.90;;;0.20;;
20832;SDS011;56075;51.264;7.150;2023-01-16T03:33:37;0.97;;;0.30;;
20832;SDS011;56075;51.264;7.150;2023-01-16T03:36:33;2.33;;;0.37;;
20832;SDS011;56075;51.264;7.150;2023-01-16T03:39:10;0.30;;;0.27;;
20832;SDS011;56075;51.264;7.150;2023-01-16T03:41:45;0.87;;;0.27;;
20832;SDS011;56075;51.264;7.150;2023-01-16T03:44:20;2.20;;;0.30;;
20832;SDS011;56075;51.264;7.150;2023-01-16T03:46:55;1.13;;;0.30;;
20832;SDS011;56075;51.264;7.150;2023-01-16T03:49:30;1.43;;;0.30;;
20832;SDS011;56075;51.264;7.150;2023-01-16T03:52:05;1.17;;;0.40;;
20832;SDS011;56075;51.264;7.150;2023-01-16T03:54:42;1.60;;;0.40;;
20832;SDS011;56075;51.264;7.150;2023-01-16T03:57:24;1.20;;;0.20;;
20832;SDS011;56075;51.264;7.150;2023-01-16T04:00:00;0.70;;;0.40;;
20832;SDS011;56075;51.264;7.150;2023-01-16T04:02:57;1.80;;;0.33;;
20832;SDS011;56075;51.264;7.150;2023-01-16T04:05:47;2.70;;;0.30;;
20832;SDS011;56075;51.264;7.150;2023-01-16T04:08:27;1.37;;;0.30;;
20832;SDS011;56075;51.264;7.150;2023-01-16T04:11:03;1.87;;;0.40;;
20832;SDS011;56075;51.264;7.150;2023-01-16T04:13:36;1.43;;;0.30;;
20832;SDS011;56075;51.264;7.150;2023-01-16T04:16:09;0.73;;;0.30;;
20832;SDS011;56075;51.264;7.150;2023-01-16T04:18:44;0.47;;;0.30;;
20832;SDS011;56075;51.264;7.150;2023-01-16T04:21:16;4.50;;;0.50;;
20832;SDS011;56075;51.264;7.150;2023-01-16T04:23:48;1.57;;;0.30;;
20832;SDS011;56075;51.264;7.150;2023-01-16T04:26:19;2.50;;;0.50;;
20832;SDS011;56075;51.264;7.150;2023-01-16T04:28:50;1.43;;;0.40;;
20832;SDS011;56075;51.264;7.150;2023-01-16T04:31:25;3.47;;;0.60;;
20832;SDS011;56075;51.264;7.150;2023-01-16T04:33:58;5.07;;;0.70;;
20832;SDS011;56075;51.264;7.150;2023-01-16T04:36:31;2.50;;;0.43;;
20832;SDS011;56075;51.264;7.150;2023-01-16T04:39:02;2.10;;;0.30;;
20832;SDS011;56075;51.264;7.150;2023-01-16T04:41:34;2.90;;;0.40;;
20832;SDS011;56075;51.264;7.150;2023-01-16T04:44:09;3.10;;;0.50;;
20832;SDS011;56075;51.264;7.150;2023-01-16T04:46:40;1.70;;;0.40;;
20832;SDS011;56075;51.264;7.150;2023-01-16T04:49:12;2.80;;;0.63;;
20832;SDS011;56075;51.264;7.150;2023-01-16T04:51:43;1.90;;;0.50;;
20832;SDS011;56075;51.264;7.150;2023-01-16T04:54:15;2.17;;;0.40;;
20832;SDS011;56075;51.264;7.150;2023-01-16T04:56:48;1.63;;;0.50;;
20832;SDS011;56075;51.264;7.150;2023-01-16T04:59:19;1.47;;;0.50;;
20832;SDS011;56075;51.264;7.150;2023-01-16T05:01:51;1.60;;;0.40;;
20832;SDS011;56075;51.264;7.150;2023-01-16T05:04:22;2.47;;;0.50;;
20832;SDS011;56075;51.264;7.150;2023-01-16T05:06:53;2.27;;;0.60;;
20832;SDS011;56075;51.264;7.150;2023-01-16T05:09:25;2.87;;;0.60;;
20832;SDS011;56075;51.264;7.150;2023-01-16T05:11:56;3.93;;;0.50;;
20832;SDS011;56075;51.264;7.150;2023-01-16T05:14:27;4.17;;;0.90;;
20832;SDS011;56075;51.264;7.150;2023-01-16T05:16:58;0.87;;;0.60;;
20832;SDS011;56075;51.264;7.150;2023-01-16T05:19:29;3.27;;;0.50;;
20832;SDS011;56075;51.264;7.150;2023-01-16T05:22:00;2.53;;;0.40;;
20832;SDS011;56075;51.264;7.150;2023-01-16T05:24:31;3.00;;;0.60;;
20832;SDS011;56075;51.264;7.150;2023-01-16T05:27:03;3.23;;;1.00;;
20832;SDS011;56075;51.264;7.150;2023-01-16T05:29:34;4.10;;;0.60;;
20832;SDS011;56075;51.264;7.150;2023-01-16T05:32:06;2.00;;;0.50;;
20832;SDS011;56075;51.264;7.150;2023-01-16T05:34:37;1.13;;;0.50;;
20832;SDS011;56075;51.264;7.150;2023-01-16T05:37:08;2.43;;;0.50;;
20832;SDS011;56075;51.264;7.150;2023-01-16T05:39:40;3.17;;;0.67;;
20832;SDS011;56075;51.264;7.150;2023-01-16T05:42:11;1.80;;;0.80;;
20832;SDS011;56075;51.264;7.150;2023-01-16T05:44:51;4.40;;;0.87;;
20832;SDS011;56075;51.264;7.150;2023-01-16T05:47:23;2.70;;;1.00;;
20832;SDS011;56075;51.264;7.150;2023-01-16T05:49:54;2.83;;;0.70;;
20832;SDS011;56075;51.264;7.150;2023-01-16T05:52:28;1.93;;;0.80;;
20832;SDS011;56075;51.264;7.150;2023-01-16T05:55:00;3.03;;;0.80;;
20832;SDS011;56075;51.264;7.150;2023-01-16T05:57:31;1.87;;;0.67;;
20832;SDS011;56075;51.264;7.150;2023-01-16T06:00:04;0.97;;;0.50;;
20832;SDS011;56075;51.264;7.150;2023-01-16T06:02:36;2.53;;;0.60;;
20832;SDS011;56075;51.264;7.150;2023-01-16T06:05:07;1.47;;;0.60;;
20832;SDS011;56075;51.264;7.150;2023-01-16T06:07:39;1.43;;;0.40;;
20832;SDS011;56075;51.264;7.150;2023-01-16T06:10:12;1.73;;;0.60;;
20832;SDS011;56075;51.264;7.150;2023-01-16T06:12:44;1.77;;;0.50;;
20832;SDS011;56075;51.264;7.150;2023-01-16T06:15:15;4.10;;;0.60;;
20832;SDS011;56075;51.264;7.150;2023-01-16T06:17:46;2.47;;;0.30;;
20832;SDS011;56075;51.264;7.150;2023-01-16T06:20:19;1.07;;;0.50;;
20832;SDS011;56075;51.264;7.150;2023-01-16T06:22:50;0.90;;;0.40;;
20832;SDS011;56075;51.264;7.150;2023-01-16T06:25:21;1.60;;;0.50;;
20832;SDS011;56075;51.264;7.150;2023-01-16T06:27:53;1.07;;;0.30;;
20832;SDS011;56075;51.264;7.150;2023-01-16T06:30:24;1.53;;;0.50;;
20832;SDS011;56075;51.264;7.150;2023-01-16T06:32:55;1.57;;;0.43;;
20832;SDS011;56075;51.264;7.150;2023-01-16T06:35:26;1.20;;;0.40;;
20832;SDS011;56075;51.264;7.150;2023-01-16T06:37:58;0.70;;;0.40;;
20832;SDS011;56075;51.264;7.150;2023-01-16T06:40:29;2.10;;;0.50;;
20832;SDS011;56075;51.264;7.150;2023-01-16T06:43:00;2.47;;;0.40;;
20832;SDS011;56075;51.264;7.150;2023-01-16T06:45:32;0.50;;;0.40;;
20832;SDS011;56075;51.264;7.150;2023-01-16T06:48:03;1.53;;;0.70;;
20832;SDS011;56075;51.264;7.150;2023-01-16T06:50:34;2.63;;;0.40;;
20832;SDS011;56075;51.264;7.150;2023-01-16T06:53:05;1.53;;;0.40;;
20832;SDS011;56075;51.264;7.150;2023-01-16T06:55:37;1.97;;;0.47;;
20832;SDS011;56075;51.264;7.150;2023-01-16T06:58:09;3.27;;;1.03;;
20832;SDS011;56075;51.264;7.150;2023-01-16T07:00:41;2.13;;;0.70;;
20832;SDS011;56075;51.264;7.150;2023-01-16T07:03:12;1.17;;;0.50;;
20832;SDS011;56075;51.264;7.150;2023-01-16T07:05:44;2.85;;;0.93;;
20832;SDS011;56075;51.264;7.150;2023-01-16T07:08:16;2.60;;;1.07;;
20832;SDS011;56075;51.264;7.150;2023-01-16T07:10:47;3.60;;;0.50;;
20832;SDS011;56075;51.264;7.150;2023-01-16T07:13:19;1.93;;;0.60;;
20832;SDS011;56075;51.264;7.150;2023-01-16T07:15:58;2.87;;;0.80;;
20832;SDS011;56075;51.264;7.150;2023-01-16T07:18:48;0.90;;;0.57;;
20832;SDS011;56075;51.264;7.150;2023-01-16T07:21:38;3.50;;;0.93;;
20832;SDS011;56075;51.264;7.150;2023-01-16T07:24:31;2.03;;;0.70;;
20832;SDS011;56075;51.264;7.150;2023-01-16T07:27:04;2.40;;;1.00;;
20832;SDS011;56075;51.264;7.150;2023-01-16T07:29:39;4.50;;;1.50;;
20832;SDS011;56075;51.264;7.150;2023-01-16T07:32:11;3.87;;;1.60;;
20832;SDS011;56075;51.264;7.150;2023-01-16T07:34:42;3.70;;;1.87;;
20832;SDS011;56075;51.264;7.150;2023-01-16T07:37:13;2.43;;;0.90;;
20832;SDS011;56075;51.264;7.150;2023-01-16T07:39:45;1.83;;;0.70;;
20832;SDS011;56075;51.264;7.150;2023-01-16T07:42:16;2.17;;;0.70;;
20832;SDS011;56075;51.264;7.150;2023-01-16T07:44:47;2.10;;;0.90;;
20832;SDS011;56075;51.264;7.150;2023-01-16T07:47:19;1.47;;;0.60;;
20832;SDS011;56075;51.264;7.150;2023-01-16T07:49:50;4.10;;;0.70;;
20832;SDS011;56075;51.264;7.150;2023-01-16T07:52:21;2.77;;;0.60;;
20832;SDS011;56075;51.264;7.150;2023-01-16T07:54:54;2.83;;;0.70;;
20832;SDS011;56075;51.264;7.150;2023-01-16T07:57:25;2.53;;;0.57;;
20832;SDS011;56075;51.264;7.150;2023-01-16T07:59:57;4.43;;;0.60;;
20832;SDS011;56075;51.264;7.150;2023-01-16T08:02:28;3.53;;;0.70;;
20832;SDS011;56075;51.264;7.150;2023-01-16T08:04:59;2.77;;;0.50;;
20832;SDS011;56075;51.264;7.150;2023-01-16T08:07:30;2.63;;;0.57;;
20832;SDS011;56075;51.264;7.150;2023-01-16T08:10:02;3.07;;;0.80;;
20832;SDS011;56075;51.264;7.150;2023-01-16T08:12:36;4.90;;;0.77;;
20832;SDS011;56075;51.264;7.150;2023-01-16T08:15:08;1.97;;;0.57;;
20832;SDS011;56075;51.264;7.150;2023-01-16T08:17:40;1.93;;;0.60;;
20832;SDS011;56075;51.264;7.150;2023-01-16T08:20:12;3.50;;;0.57;;
20832;SDS011;56075;51.264;7.150;2023-01-16T08:22:44;2.70;;;0.67;;
20832;SDS011;56075;51.264;7.150;2023-01-16T08:25:20;1.93;;;0.50;;
20832;SDS011;56075;51.264;7.150;2023-01-16T08:27:52;2.60;;;0.67;;
20832;SDS011;56075;51.264;7.150;2023-01-16T08:30:24;2.60;;;0.80;;
20832;SDS011;56075;51.264;7.150;2023-01-16T08:32:59;2.67;;;0.90;;
20832;SDS011;56075;51.264;7.150;2023-01-16T08:35:32;4.30;;;0.67;;
20832;SDS011;56075;51.264;7.150;2023-01-16T08:38:03;3.33;;;0.70;;
20832;SDS011;56075;51.264;7.150;2023-01-16T08:40:34;4.10;;;0.70;;
20832;SDS011;56075;51.264;7.150;2023-01-16T08:43:06;2.67;;;0.60;;
20832;SDS011;56075;51.264;7.150;2023-01-16T08:45:57;4.37;;;0.70;;
20832;SDS011;56075;51.264;7.150;2023-01-16T08:48:47;2.47;;;0.60;;
20832;SDS011;56075;51.264;7.150;2023-01-16T08:51:37;1.53;;;0.63;;
20832;SDS011;56075;51.264;7.150;2023-01-16T08:54:09;3.27;;;0.60;;
20832;SDS011;56075;51.264;7.150;2023-01-16T08:56:40;3.50;;;0.60;;
20832;SDS011;56075;51.264;7.150;2023-01-16T08:59:13;2.20;;;0.60;;
20832;SDS011;56075;51.264;7.150;2023-01-16T09:01:44;1.50;;;0.40;;
20832;SDS011;56075;51.264;7.150;2023-01-16T09:04:15;3.90;;;0.50;;
20832;SDS011;56075;51.264;7.150;2023-01-16T09:06:46;3.63;;;0.50;;
20832;SDS011;56075;51.264;7.150;2023-01-16T09:09:19;2.67;;;0.50;;
20832;SDS011;56075;51.264;7.150;2023-01-16T09:11:54;3.67;;;0.77;;
20832;SDS011;56075;51.264;7.150;2023-01-16T09:14:44;1.90;;;0.40;;
20832;SDS011;56075;51.264;7.150;2023-01-16T09:17:16;0.50;;;0.20;;
20832;SDS011;56075;51.264;7.150;2023-01-16T09:19:48;1.20;;;0.40;;
20832;SDS011;56075;51.264;7.150;2023-01-16T09:22:20;2.30;;;0.50;;
20832;SDS011;56075;51.264;7.150;2023-01-16T09:24:51;2.07;;;0.40;;
20832;SDS011;56075;51.264;7.150;2023-01-16T09:27:22;3.20;;;0.60;;
20832;SDS011;56075;51.264;7.150;2023-01-16T09:29:55;2.10;;;0.70;;
20832;SDS011;56075;51.264;7.150;2023-01-16T09:32:26;1.67;;;0.47;;
20832;SDS011;56075;51.264;7.150;2023-01-16T09:34:57;4.17;;;0.60;;
20832;SDS011;56075;51.264;7.150;2023-01-16T09:37:28;2.17;;;0.50;;
20832;SDS011;56075;51.264;7.150;2023-01-16T09:40:00;1.13;;;0.50;;
20832;SDS011;56075;51.264;7.150;2023-01-16T09:42:49;3.40;;;0.60;;
20832;SDS011;56075;51.264;7.150;2023-01-16T09:45:42;1.50;;;0.40;;
20832;SDS011;56075;51.264;7.150;2023-01-16T09:48:23;2.17;;;0.60;;
20832;SDS011;56075;51.264;7.150;2023-01-16T09:51:06;3.37;;;1.10;;
20832;SDS011;56075;51.264;7.150;2023-01-16T09:53:51;3.70;;;0.50;;
20832;SDS011;56075;51.264;7.150;2023-01-16T09:56:49;2.43;;;0.70;;
20832;SDS011;56075;51.264;7.150;2023-01-16T09:59:43;1.63;;;0.40;;
20832;SDS011;56075;51.264;7.150;2023-01-16T10:02:26;0.83;;;0.40;;
20832;SDS011;56075;51.264;7.150;2023-01-16T10:05:02;1.27;;;0.50;;
20832;SDS011;56075;51.264;7.150;2023-01-16T10:10:42;2.43;;;0.60;;
20832;SDS011;56075;51.264;7.150;2023-01-16T10:30:26;1.97;;;0.70;;
20832;SDS011;56075;51.264;7.150;2023-01-16T10:33:03;1.83;;;0.50;;
20832;SDS011;56075;51.264;7.150;2023-01-16T10:35:42;2.13;;;0.40;;
20832;SDS011;56075;51.264;7.150;2023-01-16T10:38:31;1.40;;;0.30;;
20832;SDS011;56075;51.264;7.150;2023-01-16T10:44:13;1.40;;;0.30;;
20832;SDS011;56075;51.264;7.150;2023-01-16T10:47:17;1.90;;;0.40;;
20832;SDS011;56075;51.264;7.150;2023-01-16T10:50:15;0.40;;;0.30;;
20832;SDS011;56075;51.264;7.150;2023-01-16T10:52:47;0.40;;;0.20;;
20832;SDS011;56075;51.264;7.150;2023-01-16T10:55:19;1.10;;;0.33;;
20832;SDS011;56075;51.264;7.150;2023-01-16T11:00:53;0.80;;;0.30;;
20832;SDS011;56075;51.264;7.150;2023-01-16T11:03:36;2.20;;;0.43;;
20832;SDS011;56075;51.264;7.150;2023-01-16T11:11:25;0.47;;;0.30;;
20832;SDS011;56075;51.264;7.150;2023-01-16T11:14:22;1.43;;;0.30;;
20832;SDS011;56075;51.264;7.150;2023-01-16T11:20:07;1.73;;;0.40;;
20832;SDS011;56075;51.264;7.150;2023-01-16T11:22:50;2.10;;;0.40;;
20832;SDS011;56075;51.264;7.150;2023-01-16T11:25:45;0.60;;;0.33;;
20832;SDS011;56075;51.264;7.150;2023-01-16T11:28:20;1.47;;;0.20;;
20832;SDS011;56075;51.264;7.150;2023-01-16T11:30:55;0.50;;;0.20;;
20832;SDS011;56075;51.264;7.150;2023-01-16T11:33:36;1.43;;;0.40;;
20832;SDS011;56075;51.264;7.150;2023-01-16T11:36:11;1.80;;;0.50;;
20832;SDS011;56075;51.264;7.150;2023-01-16T11:38:46;2.17;;;0.40;;
20832;SDS011;56075;51.264;7.150;2023-01-16T11:41:20;0.40;;;0.20;;
20832;SDS011;56075;51.264;7.150;2023-01-16T11:47:10;1.20;;;0.30;;
20832;SDS011;56075;51.264;7.150;2023-01-16T11:49:45;1.00;;;0.40;;
20832;SDS011;56075;51.264;7.150;2023-01-16T11:52:18;0.87;;;0.40;;
20832;SDS011;56075;51.264;7.150;2023-01-16T11:55:00;0.57;;;0.30;;
20832;SDS011;56075;51.264;7.150;2023-01-16T11:57:53;0.80;;;0.40;;
20832;SDS011;56075;51.264;7.150;2023-01-16T12:00:37;0.40;;;0.30;;
20832;SDS011;56075;51.264;7.150;2023-01-16T12:20:08;1.23;;;0.30;;
20832;SDS011;56075;51.264;7.150;2023-01-16T12:37:12;0.60;;;0.30;;
20832;SDS011;56075;51.264;7.150;2023-01-16T12:48:08;2.13;;;0.43;;
20832;SDS011;56075;51.264;7.150;2023-01-16T12:50:47;0.93;;;0.43;;
20832;SDS011;56075;51.264;7.150;2023-01-16T12:56:02;0.80;;;0.40;;
20832;SDS011;56075;51.264;7.150;2023-01-16T12:58:53;1.03;;;0.30;;
20832;SDS011;56075;51.264;7.150;2023-01-16T13:01:30;1.67;;;0.33;;
20832;SDS011;56075;51.264;7.150;2023-01-16T13:06:54;0.97;;;0.40;;
20832;SDS011;56075;51.264;7.150;2023-01-16T13:09:34;1.60;;;0.67;;
20832;SDS011;56075;51.264;7.150;2023-01-16T13:12:24;2.20;;;0.50;;
20832;SDS011;56075;51.264;7.150;2023-01-16T13:15:19;1.67;;;0.50;;
20832;SDS011;56075;51.264;7.150;2023-01-16T13:17:55;0.60;;;0.40;;
20832;SDS011;56075;51.264;7.150;2023-01-16T13:20:31;1.07;;;0.50;;
20832;SDS011;56075;51.264;7.150;2023-01-16T13:23:04;0.40;;;0.30;;
20832;SDS011;56075;51.264;7.150;2023-01-16T13:25:46;1.47;;;0.60;;
20832;SDS011;56075;51.264;7.150;2023-01-16T13:31:02;1.07;;;0.40;;
20832;SDS011;56075;51.264;7.150;2023-01-16T13:33:35;2.87;;;0.60;;
20832;SDS011;56075;51.264;7.150;2023-01-16T13:41:39;1.33;;;0.50;;
20832;SDS011;56075;51.264;7.150;2023-01-16T13:47:16;1.17;;;0.50;;
20832;SDS011;56075;51.264;7.150;2023-01-16T13:49:51;3.10;;;0.40;;
20832;SDS011;56075;51.264;7.150;2023-01-16T13:52:25;0.73;;;0.30;;
20832;SDS011;56075;51.264;7.150;2023-01-16T13:54:58;0.97;;;0.40;;
20832;SDS011;56075;51.264;7.150;2023-01-16T13:57:36;1.50;;;0.40;;
20832;SDS011;56075;51.264;7.150;2023-01-16T14:00:10;1.70;;;0.50;;
20832;SDS011;56075;51.264;7.150;2023-01-16T14:08:17;1.67;;;0.43;;
20832;SDS011;56075;51.264;7.150;2023-01-16T14:14:32;1.50;;;0.53;;
20832;SDS011;56075;51.264;7.150;2023-01-16T14:20:34;2.07;;;0.40;;
20832;SDS011;56075;51.264;7.150;2023-01-16T14:23:41;0.90;;;0.50;;
20832;SDS011;56075;51.264;7.150;2023-01-16T14:26:32;1.10;;;0.30;;
20832;SDS011;56075;51.264;7.150;2023-01-16T14:31:44;1.50;;;0.33;;
20832;SDS011;56075;51.264;7.150;2023-01-16T14:34:17;1.10;;;0.50;;
20832;SDS011;56075;51.264;7.150;2023-01-16T14:36:52;1.93;;;0.53;;
20832;SDS011;56075;51.264;7.150;2023-01-16T14:41:59;1.23;;;0.30;;
20832;SDS011;56075;51.264;7.150;2023-01-16T14:54:10;0.90;;;0.40;;
20832;SDS011;56075;51.264;7.150;2023-01-16T14:59:49;0.33;;;0.30;;
20832;SDS011;56075;51.264;7.150;2023-01-16T15:02:23;0.80;;;0.53;;
20832;SDS011;56075;51.264;7.150;2023-01-16T15:15:50;1.20;;;0.67;;
20832;SDS011;56075;51.264;7.150;2023-01-16T15:18:23;1.10;;;0.60;;
20832;SDS011;56075;51.264;7.150;2023-01-16T15:21:14;1.33;;;0.50;;
20832;SDS011;56075;51.264;7.150;2023-01-16T15:24:05;1.87;;;0.40;;
20832;SDS011;56075;51.264;7.150;2023-01-16T15:26:51;1.10;;;0.60;;
20832;SDS011;56075;51.264;7.150;2023-01-16T15:32:00;1.43;;;0.80;;
20832;SDS011;56075;51.264;7.150;2023-01-16T15:34:32;2.37;;;1.10;;
20832;SDS011;56075;51.264;7.150;2023-01-16T15:37:05;1.60;;;0.70;;
20832;SDS011;56075;51.264;7.150;2023-01-16T15:39:43;1.43;;;0.60;;
20832;SDS011;56075;51.264;7.150;2023-01-16T15:50:56;1.30;;;0.60;;
20832;SDS011;56075;51.264;7.150;2023-01-16T15:53:32;1.00;;;0.60;;
20832;SDS011;56075;51.264;7.150;2023-01-16T15:56:20;4.40;;;0.63;;
20832;SDS011;56075;51.264;7.150;2023-01-16T15:58:52;2.03;;;0.90;;
20832;SDS011;56075;51.264;7.150;2023-01-16T16:01:28;1.20;;;0.70;;
20832;SDS011;56075;51.264;7.150;2023-01-16T16:04:01;2.00;;;0.67;;
20832;SDS011;56075;51.264;7.150;2023-01-16T16:06:33;1.13;;;0.67;;
20832;SDS011;56075;51.264;7.150;2023-01-16T16:09:13;2.17;;;0.60;;
20832;SDS011;56075;51.264;7.150;2023-01-16T16:11:46;1.50;;;0.87;;
20832;SDS011;56075;51.264;7.150;2023-01-16T16:14:32;1.30;;;0.70;;
20832;SDS011;56075;51.264;7.150;2023-01-16T16:20:32;1.33;;;0.70;;
20832;SDS011;56075;51.264;7.150;2023-01-16T16:28:28;2.13;;;1.30;;
20832;SDS011;56075;51.264;7.150;2023-01-16T16:33:52;1.40;;;1.00;;
20832;SDS011;56075;51.264;7.150;2023-01-16T16:36:24;2.17;;;0.77;;
20832;SDS011;56075;51.264;7.150;2023-01-16T16:38:56;2.23;;;0.80;;
20832;SDS011;56075;51.264;7.150;2023-01-16T16:44:33;1.73;;;1.00;;
20832;SDS011;56075;51.264;7.150;2023-01-16T16:47:22;1.80;;;1.00;;
20832;SDS011;56075;51.264;7.150;2023-01-16T16:49:54;1.40;;;0.90;;
20832;SDS011;56075;51.264;7.150;2023-01-16T16:55:03;2.10;;;0.90;;
20832;SDS011;56075;51.264;7.150;2023-01-16T16:57:41;2.37;;;0.80;;
20832;SDS011;56075;51.264;7.150;2023-01-16T17:00:14;1.60;;;0.90;;
20832;SDS011;56075;51.264;7.150;2023-01-16T17:02:52;1.40;;;0.83;;
20832;SDS011;56075;51.264;7.150;2023-01-16T17:05:28;1.03;;;0.80;;
20832;SDS011;56075;51.264;7.150;2023-01-16T17:08:00;2.27;;;1.00;;
20832;SDS011;56075;51.264;7.150;2023-01-16T17:10:32;2.07;;;1.07;;
20832;SDS011;56075;51.264;7.150;2023-01-16T17:13:03;2.00;;;1.07;;
20832;SDS011;56075;51.264;7.150;2023-01-16T17:15:34;1.90;;;1.10;;
20832;SDS011;56075;51.264;7.150;2023-01-16T17:18:05;2.33;;;1.20;;
20832;SDS011;56075;51.264;7.150;2023-01-16T17:20:37;2.30;;;1.10;;
20832;SDS011;56075;51.264;7.150;2023-01-16T17:23:10;2.40;;;1.20;;
20832;SDS011;56075;51.264;7.150;2023-01-16T17:25:43;1.93;;;1.00;;
20832;SDS011;56075;51.264;7.150;2023-01-16T17:28:14;3.00;;;1.37;;
20832;SDS011;56075;51.264;7.150;2023-01-16T17:30:46;0.97;;;0.83;;
20832;SDS011;56075;51.264;7.150;2023-01-16T17:33:19;3.00;;;1.70;;
20832;SDS011;56075;51.264;7.150;2023-01-16T17:35:52;2.80;;;1.43;;
20832;SDS011;56075;51.264;7.150;2023-01-16T17:38:40;2.17;;;1.43;;
20832;SDS011;56075;51.264;7.150;2023-01-16T17:41:16;2.17;;;1.23;;
20832;SDS011;56075;51.264;7.150;2023-01-16T17:43:54;2.10;;;1.60;;
20832;SDS011;56075;51.264;7.150;2023-01-16T17:46:45;2.80;;;1.43;;
20832;SDS011;56075;51.264;7.150;2023-01-16T17:49:16;3.37;;;1.93;;
20832;SDS011;56075;51.264;7.150;2023-01-16T17:51:47;2.77;;;1.50;;
20832;SDS011;56075;51.264;7.150;2023-01-16T17:54:18;2.43;;;1.30;;
20832;SDS011;56075;51.264;7.150;2023-01-16T17:57:09;2.43;;;1.33;;
20832;SDS011;56075;51.264;7.150;2023-01-16T17:59:40;1.70;;;1.20;;
20832;SDS011;56075;51.264;7.150;2023-01-16T18:02:11;3.20;;;1.43;;
20832;SDS011;56075;51.264;7.150;2023-01-16T18:04:42;4.03;;;1.63;;
20832;SDS011;56075;51.264;7.150;2023-01-16T18:07:13;2.57;;;1.50;;
20832;SDS011;56075;51.264;7.150;2023-01-16T18:09:45;3.10;;;1.73;;
20832;SDS011;56075;51.264;7.150;2023-01-16T18:12:20;2.47;;;1.60;;
20832;SDS011;56075;51.264;7.150;2023-01-16T18:15:10;2.40;;;1.50;;
20832;SDS011;56075;51.264;7.150;2023-01-16T18:18:00;2.10;;;1.30;;
20832;SDS011;56075;51.264;7.150;2023-01-16T18:20:32;3.17;;;1.90;;
20832;SDS011;56075;51.264;7.150;2023-01-16T18:23:03;2.93;;;1.60;;
20832;SDS011;56075;51.264;7.150;2023-01-16T18:25:35;2.63;;;1.40;;
20832;SDS011;56075;51.264;7.150;2023-01-16T18:28:06;2.67;;;1.80;;
20832;SDS011;56075;51.264;7.150;2023-01-16T18:30:38;3.47;;;2.20;;
20832;SDS011;56075;51.264;7.150;2023-01-16T18:33:09;3.30;;;2.10;;
20832;SDS011;56075;51.264;7.150;2023-01-16T18:35:40;4.10;;;2.13;;
20832;SDS011;56075;51.264;7.150;2023-01-16T18:38:12;3.13;;;1.80;;
20832;SDS011;56075;51.264;7.150;2023-01-16T18:41:04;4.33;;;2.30;;
20832;SDS011;56075;51.264;7.150;2023-01-16T18:43:55;4.33;;;2.50;;
20832;SDS011;56075;51.264;7.150;2023-01-16T18:46:44;5.17;;;2.60;;
20832;SDS011;56075;51.264;7.150;2023-01-16T18:49:35;4.37;;;2.70;;
20832;SDS011;56075;51.264;7.150;2023-01-16T18:52:25;6.17;;;3.10;;
20832;SDS011;56075;51.264;7.150;2023-01-16T18:55:28;7.17;;;3.33;;
20832;SDS011;56075;51.264;7.150;2023-01-16T18:58:18;7.70;;;4.00;;
20832;SDS011;56075;51.264;7.150;2023-01-16T19:01:09;7.73;;;4.17;;
20832;SDS011;56075;51.264;7.150;2023-01-16T19:04:01;7.27;;;4.20;;
20832;SDS011;56075;51.264;7.150;2023-01-16T19:06:33;6.90;;;4.40;;